Time;durP1;ratioP1;P1;durP2;ratioP2;P2;SDS_P1;SDS_P2;PMS_P1;PMS_P2;Temp;Humidity;BMP_temperature;BMP_pressure;BME280_temperature;BME280_humidity;BME280_pressure;Samples;Min_cycle;Max_cycle;Signal;HPM_P1;HPM_P2
2023/07/30 00:01:19;;;;;;;31.70;5.90;;;18.30;99.90;;;;;;5054403;28;20044;-68
2023/07/30 00:03:45;;;;;;;29.52;6.38;;;18.30;99.90;;;;;;5053977;28;20043;-68
2023/07/30 00:06:10;;;;;;;30.48;6.70;;;18.40;99.90;;;;;;5054182;28;20041;-66
2023/07/30 00:08:36;;;;;;;35.38;6.07;;;18.30;99.90;;;;;;5053822;28;20021;-68
2023/07/30 00:11:01;;;;;;;34.25;6.90;;;18.40;99.90;;;;;;5053502;28;20051;-68
2023/07/30 00:13:27;;;;;;;36.38;15.68;;;18.40;99.90;;;;;;5053464;28;20021;-68
2023/07/30 00:15:52;;;;;;;25.42;6.15;;;18.40;99.90;;;;;;5053868;28;20112;-68
2023/07/30 00:18:18;;;;;;;24.90;5.88;;;18.40;99.90;;;;;;5054003;28;20032;-68
2023/07/30 00:20:43;;;;;;;27.10;6.03;;;18.50;99.90;;;;;;5053919;28;20059;-67
2023/07/30 00:23:09;;;;;;;29.23;6.68;;;18.40;99.90;;;;;;5053885;28;20025;-68
2023/07/30 00:25:35;;;;;;;27.67;5.47;;;18.50;99.90;;;;;;5049761;28;20033;-67
2023/07/30 00:28:00;;;;;;;28.60;5.90;;;18.50;99.90;;;;;;5053173;28;20060;-67
2023/07/30 00:30:26;;;;;;;28.17;6.00;;;18.50;99.90;;;;;;5053572;28;20100;-67
2023/07/30 00:32:51;;;;;;;26.95;5.22;;;18.50;99.90;;;;;;5053615;28;20040;-69
2023/07/30 00:35:17;;;;;;;22.08;5.45;;;18.50;99.90;;;;;;5053602;28;20063;-67
2023/07/30 00:37:43;;;;;;;22.38;5.25;;;18.50;99.90;;;;;;5053774;28;20451;-69
2023/07/30 00:40:09;;;;;;;25.23;5.13;;;18.50;99.90;;;;;;5053506;28;20044;-67
2023/07/30 00:42:34;;;;;;;25.25;6.72;;;18.50;99.90;;;;;;5053288;28;20029;-68
2023/07/30 00:45:00;;;;;;;29.05;5.38;;;18.50;99.90;;;;;;5053158;28;20052;-66
2023/07/30 00:47:26;;;;;;;22.48;5.20;;;18.50;99.90;;;;;;5053042;28;20393;-67
2023/07/30 00:49:52;;;;;;;19.10;4.72;;;18.60;99.90;;;;;;5053197;28;20021;-67
2023/07/30 00:52:20;;;;;;;26.67;6.22;;;18.60;99.90;;;;;;5053325;28;20380;-66
2023/07/30 00:54:47;;;;;;;20.67;4.10;;;18.50;99.90;;;;;;5053023;28;20033;-67
2023/07/30 00:57:14;;;;;;;25.55;5.30;;;18.50;99.90;;;;;;5053166;28;20113;-68
2023/07/30 00:59:40;;;;;;;25.23;5.03;;;18.50;99.90;;;;;;5049915;28;20035;-66
2023/07/30 01:02:05;;;;;;;32.40;6.00;;;18.50;99.90;;;;;;5053160;28;20029;-68
2023/07/30 01:04:32;;;;;;;27.50;5.35;;;18.40;99.90;;;;;;5053398;28;20025;-68
2023/07/30 01:06:57;;;;;;;27.60;5.07;;;18.40;99.90;;;;;;5052842;28;20075;-67
2023/07/30 01:09:23;;;;;;;26.60;5.45;;;18.40;99.90;;;;;;5052742;28;20068;-67
2023/07/30 01:11:49;;;;;;;25.13;5.30;;;18.40;99.90;;;;;;5052949;28;20033;-68
2023/07/30 01:14:16;;;;;;;29.27;5.15;;;18.30;99.90;;;;;;5052704;28;20381;-67
2023/07/30 01:16:41;;;;;;;25.25;5.15;;;18.30;99.90;;;;;;5052786;28;20029;-68
2023/07/30 01:19:07;;;;;;;28.27;5.22;;;18.30;99.90;;;;;;5052867;28;20039;-67
2023/07/30 01:21:37;;;;;;;22.88;5.10;;;18.40;99.90;;;;;;5052671;28;20151;-68
2023/07/30 01:24:03;;;;;;;30.48;5.25;;;18.40;99.90;;;;;;5064028;28;20055;-67
2023/07/30 01:26:57;;;;;;;23.77;4.75;;;18.30;99.90;;;;;;5072157;28;20044;-67
2023/07/30 01:29:32;;;;;;;26.52;4.82;;;18.40;99.90;;;;;;5072357;28;20093;-68
2023/07/30 01:32:04;;;;;;;21.05;4.47;;;18.30;99.90;;;;;;5072789;28;20028;-68
2023/07/30 01:34:32;;;;;;;20.67;5.38;;;18.30;99.90;;;;;;5071893;28;20177;-67
2023/07/30 01:36:58;;;;;;;25.15;5.07;;;18.30;99.90;;;;;;5072136;28;20039;-67
2023/07/30 01:39:24;;;;;;;24.77;4.65;;;18.30;99.90;;;;;;5070884;28;20040;-69
2023/07/30 01:41:52;;;;;;;28.05;4.55;;;18.30;99.90;;;;;;5070870;28;20036;-68
2023/07/30 01:44:18;;;;;;;26.13;5.82;;;18.30;99.90;;;;;;5071258;28;20025;-67
2023/07/30 01:46:43;;;;;;;28.95;5.38;;;18.30;99.90;;;;;;5072185;28;20174;-68
2023/07/30 01:49:09;;;;;;;27.50;6.00;;;18.40;99.90;;;;;;5072059;28;20115;-68
2023/07/30 01:51:34;;;;;;;27.77;5.65;;;18.30;99.90;;;;;;5072083;28;20037;-68
2023/07/30 01:54:00;;;;;;;32.50;5.28;;;18.30;99.90;;;;;;5072359;28;20025;-67
2023/07/30 01:56:25;;;;;;;27.80;7.15;;;18.40;99.90;;;;;;5072190;28;20024;-66
2023/07/30 01:58:51;;;;;;;30.10;6.60;;;18.40;99.90;;;;;;5072267;28;20078;-67
2023/07/30 02:01:17;;;;;;;27.38;5.35;;;18.40;99.90;;;;;;5071919;28;20028;-68
2023/07/30 02:03:42;;;;;;;21.63;4.40;;;18.40;99.90;;;;;;5071995;28;20032;-68
2023/07/30 02:06:08;;;;;;;16.67;4.40;;;18.40;99.90;;;;;;5071707;28;20468;-67
2023/07/30 02:08:33;;;;;;;19.42;3.83;;;18.40;99.90;;;;;;5072066;28;20037;-68
2023/07/30 02:10:59;;;;;;;18.73;3.92;;;18.40;99.90;;;;;;5072266;28;20032;-68
2023/07/30 02:13:25;;;;;;;19.35;3.95;;;18.50;99.90;;;;;;5072151;28;20040;-67
2023/07/30 02:15:51;;;;;;;20.13;4.25;;;18.50;99.90;;;;;;5072031;28;20021;-68
2023/07/30 02:18:17;;;;;;;18.60;3.33;;;18.50;99.90;;;;;;5071972;28;20064;-67
2023/07/30 02:20:42;;;;;;;17.20;3.70;;;18.50;99.90;;;;;;5071834;28;20047;-67
2023/07/30 02:23:08;;;;;;;17.38;3.72;;;18.50;99.90;;;;;;5072019;28;20024;-67
2023/07/30 02:25:35;;;;;;;17.05;4.18;;;18.50;99.90;;;;;;5072012;28;20382;-68
2023/07/30 02:28:01;;;;;;;17.98;3.95;;;18.50;99.90;;;;;;5072075;28;20029;-67
2023/07/30 02:30:27;;;;;;;20.13;3.63;;;18.50;99.90;;;;;;5072017;28;20020;-67
2023/07/30 02:32:53;;;;;;;18.52;3.60;;;18.50;99.90;;;;;;5071851;28;20383;-67
2023/07/30 02:35:18;;;;;;;19.02;3.88;;;18.50;99.90;;;;;;5074942;28;20032;-68
2023/07/30 02:37:44;;;;;;;18.63;3.50;;;18.50;99.90;;;;;;5076017;28;20357;-68
2023/07/30 02:40:10;;;;;;;16.83;4.38;;;18.50;99.90;;;;;;5075650;28;20578;-68
2023/07/30 02:42:35;;;;;;;22.30;4.20;;;18.50;99.90;;;;;;5075938;28;20448;-67
2023/07/30 02:45:01;;;;;;;24.58;5.85;;;18.50;99.90;;;;;;5075767;28;20051;-68
2023/07/30 02:47:27;;;;;;;24.77;4.68;;;18.50;99.90;;;;;;5075663;28;20049;-68
2023/07/30 02:49:52;;;;;;;21.70;3.92;;;18.60;99.90;;;;;;5075446;28;20024;-67
2023/07/30 02:52:18;;;;;;;16.20;3.22;;;18.50;99.90;;;;;;5075373;28;20047;-67
2023/07/30 02:54:43;;;;;;;14.65;3.35;;;18.50;99.90;;;;;;5075849;28;20035;-68
2023/07/30 02:57:11;;;;;;;12.55;2.63;;;18.40;99.90;;;;;;5057090;28;20032;-68
2023/07/30 02:59:37;;;;;;;13.70;2.75;;;18.40;99.90;;;;;;5055328;28;20029;-67
2023/07/30 03:02:05;;;;;;;13.23;2.65;;;18.40;99.90;;;;;;5055350;28;20029;-68
2023/07/30 03:04:31;;;;;;;11.90;2.20;;;18.50;99.90;;;;;;5055248;28;20029;-68
2023/07/30 03:06:56;;;;;;;11.52;2.40;;;18.50;99.90;;;;;;5055350;28;20033;-68
2023/07/30 03:09:22;;;;;;;9.95;2.10;;;18.50;99.90;;;;;;5055341;28;20032;-67
2023/07/30 03:11:49;;;;;;;14.82;2.13;;;18.50;99.90;;;;;;5055339;28;20025;-68
2023/07/30 03:14:14;;;;;;;10.60;1.98;;;18.50;99.90;;;;;;5054899;28;20469;-67
2023/07/30 03:16:40;;;;;;;10.02;2.42;;;18.60;99.90;;;;;;5055066;28;20036;-66
2023/07/30 03:19:05;;;;;;;9.50;2.40;;;18.60;99.90;;;;;;5054904;28;20457;-67
2023/07/30 03:21:31;;;;;;;11.52;2.20;;;18.60;99.90;;;;;;5054885;28;20465;-67
2023/07/30 03:23:57;;;;;;;11.63;2.67;;;18.60;99.90;;;;;;5055339;28;20025;-67
2023/07/30 03:26:22;;;;;;;14.88;2.80;;;18.60;99.90;;;;;;5054652;28;20041;-68
2023/07/30 03:28:48;;;;;;;13.70;2.78;;;18.60;99.90;;;;;;5055030;28;20090;-68
2023/07/30 03:31:13;;;;;;;14.10;2.00;;;18.50;99.90;;;;;;5054883;28;20025;-67
2023/07/30 03:33:43;;;;;;;12.48;2.45;;;18.50;99.90;;;;;;5054321;28;20112;-68
2023/07/30 03:36:10;;;;;;;12.65;2.38;;;18.40;99.90;;;;;;5054885;28;20048;-67
2023/07/30 03:38:35;;;;;;;11.95;1.85;;;18.40;99.90;;;;;;5054709;28;20559;-68
2023/07/30 03:41:01;;;;;;;11.45;2.30;;;18.40;99.90;;;;;;5054635;28;20104;-68
2023/07/30 03:43:26;;;;;;;10.10;2.05;;;18.30;99.90;;;;;;5054614;28;20064;-68
2023/07/30 03:45:52;;;;;;;11.85;1.85;;;18.30;99.90;;;;;;5053193;28;20037;-66
2023/07/30 03:48:17;;;;;;;12.35;2.67;;;18.40;99.90;;;;;;5054146;28;20056;-67
2023/07/30 03:50:43;;;;;;;14.75;2.92;;;18.30;99.90;;;;;;5054551;28;20021;-67
2023/07/30 03:53:09;;;;;;;12.07;2.20;;;18.30;99.90;;;;;;5054265;28;20347;-67
2023/07/30 03:55:34;;;;;;;11.55;2.38;;;18.30;99.90;;;;;;5054463;28;20028;-67
2023/07/30 03:58:00;;;;;;;11.65;2.40;;;18.30;99.90;;;;;;5054266;28;20033;-67
2023/07/30 04:00:25;;;;;;;14.45;2.95;;;18.30;99.90;;;;;;5054310;28;20041;-67
2023/07/30 04:02:51;;;;;;;9.45;2.13;;;18.30;99.90;;;;;;5054138;28;20389;-68
2023/07/30 04:05:16;;;;;;;9.95;2.30;;;18.20;99.90;;;;;;5054542;28;20469;-68
2023/07/30 04:07:42;;;;;;;9.80;2.20;;;18.20;99.90;;;;;;5053322;28;20381;-67
2023/07/30 04:10:08;;;;;;;11.85;2.38;;;18.20;99.90;;;;;;5054566;28;20492;-67
2023/07/30 04:12:33;;;;;;;15.32;2.78;;;18.10;99.90;;;;;;5054356;28;20190;-68
2023/07/30 04:14:59;;;;;;;12.75;2.42;;;18.10;99.90;;;;;;5053977;28;20032;-67
2023/07/30 04:17:24;;;;;;;17.08;2.50;;;18.10;99.90;;;;;;5053725;28;20021;-68
2023/07/30 04:19:50;;;;;;;12.23;2.40;;;18.10;99.90;;;;;;5054049;28;20025;-67
2023/07/30 04:22:15;;;;;;;12.27;2.22;;;18.10;99.90;;;;;;5054046;28;20035;-67
2023/07/30 04:24:41;;;;;;;14.73;2.70;;;18.10;99.90;;;;;;5054094;28;20116;-67
2023/07/30 04:27:07;;;;;;;15.68;2.88;;;18.10;99.90;;;;;;5053588;28;20128;-67
2023/07/30 04:29:32;;;;;;;11.07;2.15;;;18.10;99.90;;;;;;5053892;28;20108;-67
2023/07/30 04:31:58;;;;;;;12.48;2.45;;;18.10;99.90;;;;;;5053430;28;20461;-67
2023/07/30 04:34:23;;;;;;;15.93;2.95;;;18.10;99.90;;;;;;5054095;28;20033;-68
2023/07/30 04:36:49;;;;;;;10.75;2.53;;;18.10;99.90;;;;;;5053928;28;20415;-68
2023/07/30 04:39:14;;;;;;;17.08;2.67;;;18.10;99.90;;;;;;5053520;28;20029;-67
2023/07/30 04:41:40;;;;;;;14.38;3.50;;;18.10;99.90;;;;;;5054095;28;20029;-67
2023/07/30 04:44:05;;;;;;;10.93;2.75;;;18.20;99.90;;;;;;5053342;28;20071;-68
2023/07/30 04:46:33;;;;;;;16.70;2.78;;;18.20;99.90;;;;;;5053123;28;20059;-67
2023/07/30 04:48:58;;;;;;;11.93;2.63;;;18.30;99.90;;;;;;5053805;28;20064;-68
2023/07/30 04:51:24;;;;;;;14.18;2.83;;;18.30;99.90;;;;;;5053507;28;20060;-66
2023/07/30 04:53:49;;;;;;;16.23;2.58;;;18.30;99.90;;;;;;5053127;28;20492;-67
2023/07/30 04:56:15;;;;;;;13.02;2.10;;;18.40;99.90;;;;;;5053074;28;20079;-67
2023/07/30 04:58:40;;;;;;;12.98;2.00;;;18.40;99.90;;;;;;5053394;28;20028;-67
2023/07/30 05:01:06;;;;;;;18.35;2.95;;;18.50;99.90;;;;;;5052795;28;20033;-67
2023/07/30 05:03:31;;;;;;;13.30;2.65;;;18.50;99.90;;;;;;5052931;28;20033;-68
2023/07/30 05:05:57;;;;;;;13.50;2.45;;;18.50;99.90;;;;;;5053048;28;20037;-68
2023/07/30 05:08:22;;;;;;;13.02;2.90;;;18.60;99.90;;;;;;5053124;28;20032;-67
2023/07/30 05:10:48;;;;;;;16.23;2.80;;;18.60;99.90;;;;;;5051578;28;20024;-68
2023/07/30 05:13:14;;;;;;;12.25;2.45;;;18.60;99.90;;;;;;5053081;28;20036;-67
2023/07/30 05:15:39;;;;;;;13.93;2.78;;;18.60;99.90;;;;;;5052706;28;20416;-67
2023/07/30 05:18:05;;;;;;;13.60;2.53;;;18.60;99.90;;;;;;5052841;28;20023;-68
2023/07/30 05:20:30;;;;;;;11.70;2.40;;;18.70;99.90;;;;;;5052730;28;20438;-68
2023/07/30 05:22:56;;;;;;;13.30;2.60;;;18.70;99.90;;;;;;5052898;28;20033;-67
2023/07/30 05:25:22;;;;;;;16.23;3.08;;;18.70;99.90;;;;;;5052767;28;20037;-67
2023/07/30 05:27:48;;;;;;;12.32;2.38;;;18.80;99.90;;;;;;5052783;28;20025;-67
2023/07/30 05:30:13;;;;;;;16.45;3.10;;;18.90;99.90;;;;;;5052076;28;20028;-67
2023/07/30 05:32:39;;;;;;;7.20;1.90;;;19.00;99.90;;;;;;5052492;28;20024;-66
2023/07/30 05:35:05;;;;;;;10.70;2.22;;;19.10;99.90;;;;;;5052554;28;20454;-67
2023/07/30 05:37:31;;;;;;;11.55;1.98;;;19.10;99.90;;;;;;5052224;28;20051;-68
2023/07/30 05:39:56;;;;;;;14.07;2.50;;;19.20;99.90;;;;;;5052496;28;20473;-68
2023/07/30 05:42:22;;;;;;;11.77;3.47;;;19.20;99.90;;;;;;5052492;28;20410;-67
2023/07/30 05:44:48;;;;;;;13.40;3.08;;;19.20;99.90;;;;;;5051213;28;20040;-67
2023/07/30 05:47:13;;;;;;;12.45;3.10;;;19.20;99.90;;;;;;5052231;28;20056;-67
2023/07/30 05:49:39;;;;;;;14.07;3.67;;;19.20;99.90;;;;;;5051147;28;20036;-67
2023/07/30 05:52:05;;;;;;;15.10;3.95;;;19.20;99.90;;;;;;5052510;28;20017;-65
2023/07/30 05:54:31;;;;;;;13.38;3.25;;;19.30;99.90;;;;;;5052294;28;20163;-68
2023/07/30 05:56:56;;;;;;;14.77;2.83;;;19.30;99.90;;;;;;5052136;28;20036;-67
2023/07/30 05:59:22;;;;;;;11.95;4.10;;;19.40;99.90;;;;;;5052016;28;20428;-68
2023/07/30 06:01:47;;;;;;;13.05;3.55;;;19.60;99.90;;;;;;5052224;28;20461;-67
2023/07/30 06:04:13;;;;;;;14.68;4.03;;;19.70;99.90;;;;;;5051997;28;20397;-67
2023/07/30 06:06:38;;;;;;;15.10;3.58;;;19.80;99.90;;;;;;5050605;28;20400;-67
2023/07/30 06:09:04;;;;;;;17.17;3.50;;;19.70;99.90;;;;;;5051614;28;20029;-68
2023/07/30 06:11:30;;;;;;;15.55;4.57;;;19.70;99.90;;;;;;5052074;28;20029;-67
2023/07/30 06:13:55;;;;;;;14.25;3.10;;;19.70;99.90;;;;;;5052220;28;20025;-69
2023/07/30 06:16:21;;;;;;;13.70;2.60;;;19.70;99.90;;;;;;5051956;28;20035;-68
2023/07/30 06:18:47;;;;;;;14.13;3.03;;;20.00;99.90;;;;;;5052232;28;20074;-68
2023/07/30 06:21:12;;;;;;;12.07;3.58;;;20.20;99.90;;;;;;5052085;28;20090;-67
2023/07/30 06:23:38;;;;;;;16.30;3.95;;;20.50;99.90;;;;;;5051992;28;20531;-67
2023/07/30 06:26:03;;;;;;;14.95;3.10;;;20.60;99.90;;;;;;5051837;28;20048;-66
2023/07/30 06:28:29;;;;;;;15.23;3.60;;;20.60;99.90;;;;;;5052120;28;20026;-67
2023/07/30 06:30:55;;;;;;;12.75;3.60;;;20.60;99.90;;;;;;5051571;28;20022;-67
2023/07/30 06:33:20;;;;;;;14.57;3.50;;;20.50;99.90;;;;;;5051789;28;20029;-67
2023/07/30 06:35:46;;;;;;;11.43;3.15;;;20.50;99.90;;;;;;5051823;28;20025;-67
2023/07/30 06:38:11;;;;;;;12.85;2.90;;;20.50;99.90;;;;;;5051981;28;20137;-67
2023/07/30 06:40:37;;;;;;;14.50;4.05;;;20.40;99.90;;;;;;5052097;28;20021;-67
2023/07/30 06:43:02;;;;;;;14.48;3.63;;;20.40;99.90;;;;;;5051965;28;20064;-70
2023/07/30 06:45:28;;;;;;;13.77;3.10;;;20.30;99.90;;;;;;5051325;28;20086;-67
2023/07/30 06:47:53;;;;;;;13.65;3.47;;;20.30;99.90;;;;;;5051769;28;20056;-67
2023/07/30 06:50:19;;;;;;;14.02;3.83;;;20.10;99.90;;;;;;5052039;28;20036;-67
2023/07/30 06:52:44;;;;;;;16.13;4.30;;;20.10;99.90;;;;;;5050663;28;20134;-67
2023/07/30 06:55:10;;;;;;;15.18;3.08;;;20.10;99.90;;;;;;5052047;28;20037;-67
2023/07/30 06:57:36;;;;;;;16.58;4.45;;;20.10;99.90;;;;;;5052168;28;20036;-67
2023/07/30 07:00:03;;;;;;;19.35;4.10;;;20.10;99.90;;;;;;5050257;28;20017;-67
2023/07/30 07:02:29;;;;;;;14.43;3.22;;;20.10;99.90;;;;;;5051642;28;20127;-67
2023/07/30 07:04:54;;;;;;;14.38;3.22;;;20.00;99.90;;;;;;5051273;28;20230;-68
2023/07/30 07:07:20;;;;;;;14.75;2.90;;;20.00;99.90;;;;;;5051686;28;20025;-68
2023/07/30 07:09:46;;;;;;;15.95;3.60;;;20.00;99.90;;;;;;5051765;28;20036;-67
2023/07/30 07:12:11;;;;;;;16.08;3.80;;;20.00;99.90;;;;;;5051519;28;20431;-67
2023/07/30 07:14:37;;;;;;;15.88;3.42;;;20.00;99.90;;;;;;5051296;28;20120;-67
2023/07/30 07:17:03;;;;;;;13.55;3.63;;;19.80;99.90;;;;;;5051454;28;20060;-67
2023/07/30 07:19:28;;;;;;;12.30;3.08;;;19.80;99.90;;;;;;5051959;28;20079;-68
2023/07/30 07:21:54;;;;;;;13.35;3.60;;;19.70;99.90;;;;;;5054091;28;20067;-67
2023/07/30 07:24:19;;;;;;;17.40;3.22;;;19.70;99.90;;;;;;5055016;28;20396;-68
2023/07/30 07:26:45;;;;;;;15.63;3.20;;;19.80;99.90;;;;;;5054884;28;20047;-68
2023/07/30 07:29:11;;;;;;;15.02;3.10;;;19.90;99.90;;;;;;5054781;28;20023;-67
2023/07/30 07:31:36;;;;;;;16.90;2.78;;;20.10;99.90;;;;;;5055152;28;20037;-67
2023/07/30 07:34:02;;;;;;;12.68;3.30;;;20.40;99.90;;;;;;5054981;28;20074;-67
2023/07/30 07:36:27;;;;;;;15.40;3.65;;;20.70;99.90;;;;;;5054968;28;20028;-67
2023/07/30 07:38:53;;;;;;;12.13;2.40;;;20.80;99.90;;;;;;5054880;28;20116;-68
2023/07/30 07:41:18;;;;;;;9.88;1.92;;;20.90;99.90;;;;;;5054426;28;20029;-67
2023/07/30 07:43:46;;;;;;;15.43;2.72;;;20.80;99.90;;;;;;5054455;28;20029;-67
2023/07/30 07:46:14;;;;;;;15.70;3.00;;;20.70;99.90;;;;;;5054422;28;20061;-67
2023/07/30 07:48:43;;;;;;;15.25;2.20;;;20.70;99.90;;;;;;5054603;28;20037;-67
2023/07/30 07:51:10;;;;;;;17.90;2.58;;;20.60;99.90;;;;;;5054558;28;20418;-67
2023/07/30 07:53:36;;;;;;;17.58;2.75;;;20.50;99.90;;;;;;5054378;28;20020;-67
2023/07/30 07:56:03;;;;;;;9.23;2.47;;;20.40;99.90;;;;;;5054385;28;20024;-68
2023/07/30 07:58:28;;;;;;;9.93;2.03;;;20.30;99.90;;;;;;5054362;28;20045;-67
2023/07/30 08:00:55;;;;;;;9.82;2.20;;;20.40;99.90;;;;;;5054435;28;20412;-66
2023/07/30 08:03:21;;;;;;;12.23;3.00;;;20.30;99.90;;;;;;5053693;28;20091;-67
2023/07/30 08:05:47;;;;;;;12.20;2.65;;;20.40;99.90;;;;;;5054066;28;20051;-68
2023/07/30 08:08:13;;;;;;;10.18;2.42;;;20.50;99.90;;;;;;5053583;28;20037;-68
2023/07/30 08:10:39;;;;;;;10.20;2.40;;;20.60;99.90;;;;;;5052848;28;20025;-66
2023/07/30 08:13:05;;;;;;;12.40;2.42;;;20.70;99.90;;;;;;5053837;28;20491;-67
2023/07/30 08:15:30;;;;;;;13.55;2.65;;;20.70;99.90;;;;;;5053868;28;20037;-67
2023/07/30 08:17:56;;;;;;;9.25;2.30;;;20.80;99.90;;;;;;5052855;28;20108;-67
2023/07/30 08:20:21;;;;;;;10.23;2.30;;;21.10;99.90;;;;;;5053626;28;20441;-67
2023/07/30 08:22:47;;;;;;;10.10;1.98;;;21.30;99.90;;;;;;5060253;28;20052;-67
2023/07/30 08:25:12;;;;;;;16.27;2.40;;;21.60;99.90;;;;;;5057786;28;20376;-67
2023/07/30 08:27:38;;;;;;;10.10;2.05;;;21.80;99.90;;;;;;5070180;28;20029;-67
2023/07/30 08:30:04;;;;;;;13.63;2.70;;;21.80;99.90;;;;;;5053487;28;20028;-67
2023/07/30 08:32:29;;;;;;;13.15;2.67;;;21.80;99.90;;;;;;5053257;28;20112;-67
2023/07/30 08:34:55;;;;;;;10.18;2.03;;;21.60;99.90;;;;;;5068112;28;20037;-66
2023/07/30 08:37:21;;;;;;;10.43;2.00;;;21.50;99.90;;;;;;5073672;28;20030;-67
2023/07/30 08:39:46;;;;;;;9.90;1.92;;;21.50;99.90;;;;;;5073245;28;20029;-67
2023/07/30 08:42:12;;;;;;;14.15;2.55;;;22.40;99.90;;;;;;5072991;28;20824;-67
2023/07/30 08:44:37;;;;;;;11.85;2.35;;;22.60;99.90;;;;;;5073450;28;20028;-67
2023/07/30 08:47:03;;;;;;;9.30;2.25;;;22.50;99.90;;;;;;5068616;28;20059;-67
2023/07/30 08:49:32;;;;;;;11.30;2.47;;;22.40;99.90;;;;;;5051803;28;20039;-68
2023/07/30 08:51:59;;;;;;;11.18;2.10;;;22.50;99.90;;;;;;5052188;28;20056;-67
2023/07/30 08:54:28;;;;;;;9.98;2.05;;;22.50;99.90;;;;;;5052291;28;20040;-68
2023/07/30 08:56:54;;;;;;;11.98;2.05;;;22.30;99.90;;;;;;5051987;28;20033;-67
2023/07/30 08:59:21;;;;;;;11.57;2.30;;;22.50;99.90;;;;;;5053160;28;20044;-68
2023/07/30 09:01:48;;;;;;;6.80;1.80;;;23.60;99.90;;;;;;5053301;28;20051;-66
2023/07/30 09:04:17;;;;;;;10.02;2.08;;;24.90;99.30;;;;;;5053040;28;20083;-67
2023/07/30 09:06:42;;;;;;;9.00;1.92;;;26.40;97.30;;;;;;5052931;28;20494;-67
2023/07/30 09:09:10;;;;;;;9.30;2.08;;;27.30;95.90;;;;;;5052952;28;20111;-67
2023/07/30 09:11:36;;;;;;;8.35;1.80;;;27.70;95.20;;;;;;5052667;28;20037;-66
2023/07/30 09:14:02;;;;;;;8.57;1.65;;;27.50;95.00;;;;;;5052845;28;20479;-67
2023/07/30 09:16:28;;;;;;;7.88;1.73;;;27.20;94.80;;;;;;5052288;28;20063;-67
2023/07/30 09:18:54;;;;;;;9.45;2.00;;;27.60;94.70;;;;;;5052248;28;20029;-67
2023/07/30 09:21:28;;;;;;;12.30;1.95;;;28.30;93.80;;;;;;5052034;28;20479;-67
2023/07/30 09:23:54;;;;;;;11.85;2.17;;;28.50;93.30;;;;;;5052658;28;20411;-68
2023/07/30 09:26:19;;;;;;;9.40;2.15;;;28.10;93.40;;;;;;5052503;28;20041;-67
2023/07/30 09:28:45;;;;;;;8.48;1.95;;;27.50;94.20;;;;;;5052841;28;20032;-67
2023/07/30 09:31:10;;;;;;;10.15;1.80;;;27.10;94.40;;;;;;5052723;28;20044;-67
2023/07/30 09:33:41;;;;;;;10.50;1.92;;;27.30;94.10;;;;;;5052849;28;20078;-67
2023/07/30 09:36:10;;;;;;;7.90;1.60;;;27.60;94.10;;;;;;5052288;28;20036;-67
2023/07/30 09:38:40;;;;;;;7.78;1.75;;;28.10;93.10;;;;;;5051409;28;20074;-68
2023/07/30 09:41:05;;;;;;;10.60;2.17;;;28.10;92.80;;;;;;5052096;28;20365;-67
2023/07/30 09:43:34;;;;;;;9.07;1.77;;;27.70;93.30;;;;;;5051686;28;20044;-67
2023/07/30 09:46:04;;;;;;;9.50;2.05;;;27.20;94.30;;;;;;5052307;28;20065;-67
2023/07/30 09:48:32;;;;;;;16.08;2.47;;;26.70;94.90;;;;;;5052777;28;20088;-68
2023/07/30 09:51:02;;;;;;;9.73;1.90;;;26.30;95.40;;;;;;5052376;28;20037;-67
2023/07/30 09:53:34;;;;;;;12.05;2.10;;;26.10;95.40;;;;;;5072470;28;20028;-67
2023/07/30 09:56:02;;;;;;;16.50;4.13;;;25.60;95.90;;;;;;5072567;28;20029;-67
2023/07/30 09:58:28;;;;;;;11.98;3.33;;;24.70;97.30;;;;;;5071506;28;20165;-67
2023/07/30 10:00:55;;;;;;;11.43;3.20;;;24.50;97.70;;;;;;5070855;28;20111;-68
2023/07/30 10:03:21;;;;;;;14.23;2.75;;;24.80;97.30;;;;;;5054740;28;20035;-67
2023/07/30 10:05:48;;;;;;;13.20;2.85;;;24.90;97.40;;;;;;5051409;28;20037;-67
2023/07/30 10:08:21;;;;;;;13.82;3.33;;;24.90;97.50;;;;;;5051608;28;20013;-68
2023/07/30 10:10:48;;;;;;;13.60;2.63;;;25.00;97.20;;;;;;5052046;28;20111;-67
2023/07/30 10:13:16;;;;;;;11.98;3.20;;;25.20;96.90;;;;;;5052109;28;20025;-66
2023/07/30 10:15:43;;;;;;;12.63;3.92;;;25.20;96.60;;;;;;5051810;28;20037;-68
2023/07/30 10:18:09;;;;;;;16.45;4.53;;;25.10;96.90;;;;;;5052207;28;20120;-67
2023/07/30 10:20:34;;;;;;;14.95;3.92;;;25.00;97.10;;;;;;5063808;28;20108;-67
2023/07/30 10:23:01;;;;;;;15.75;3.88;;;25.00;97.20;;;;;;5058454;28;20047;-67
2023/07/30 10:25:48;;;;;;;13.23;3.33;;;25.10;97.10;;;;;;5051608;28;20083;-67
2023/07/30 10:28:29;;;;;;;12.70;2.92;;;25.20;97.50;;;;;;5051885;28;20036;-66
2023/07/30 10:31:03;;;;;;;10.55;2.92;;;25.80;96.70;;;;;;5051844;28;20052;-67
2023/07/30 10:33:50;;;;;;;15.32;4.47;;;26.00;96.60;;;;;;5050383;28;20017;-67
2023/07/30 10:36:45;;;;;;;8.77;2.88;;;26.50;96.20;;;;;;5051580;28;20052;-67
2023/07/30 10:39:16;;;;;;;13.48;3.63;;;26.40;96.30;;;;;;5052074;28;20033;-68
2023/07/30 10:41:44;;;;;;;18.83;5.55;;;27.30;95.80;;;;;;5052024;28;20048;-67
2023/07/30 10:44:37;;;;;;;13.77;4.43;;;27.50;94.90;;;;;;5050317;28;20041;-67
2023/07/30 10:47:03;;;;;;;16.80;3.85;;;27.30;94.90;;;;;;5051003;28;20096;-67
2023/07/30 10:49:29;;;;;;;12.98;3.50;;;27.10;94.70;;;;;;5050784;28;20054;-67
2023/07/30 10:51:59;;;;;;;12.30;3.53;;;26.90;95.00;;;;;;5051975;28;20025;-67
2023/07/30 10:54:25;;;;;;;12.93;3.08;;;26.90;95.00;;;;;;5050717;28;20041;-67
2023/07/30 10:56:51;;;;;;;14.07;2.97;;;26.70;95.40;;;;;;5055729;28;20025;-68
2023/07/30 10:59:19;;;;;;;11.88;3.45;;;26.40;95.60;;;;;;5055551;28;20033;-67
2023/07/30 11:01:45;;;;;;;15.15;3.92;;;26.10;96.10;;;;;;5055404;28;20480;-67
2023/07/30 11:04:18;;;;;;;15.32;4.32;;;26.10;96.40;;;;;;5055579;28;20110;-67
2023/07/30 11:06:49;;;;;;;14.07;3.25;;;26.00;96.20;;;;;;5055403;28;20065;-67
2023/07/30 11:09:22;;;;;;;15.77;4.75;;;26.40;96.10;;;;;;5055350;28;20041;-67
2023/07/30 11:11:49;;;;;;;14.30;3.47;;;26.90;95.40;;;;;;5055517;28;20033;-67
2023/07/30 11:14:23;;;;;;;12.05;3.47;;;27.00;95.60;;;;;;5055190;28;20036;-67
2023/07/30 11:16:54;;;;;;;13.38;3.45;;;27.00;95.40;;;;;;5055361;28;20032;-67
2023/07/30 11:19:19;;;;;;;13.13;3.07;;;26.90;95.50;;;;;;5055425;28;20037;-68
2023/07/30 11:21:49;;;;;;;11.65;2.70;;;26.70;96.00;;;;;;5055000;28;20393;-66
2023/07/30 11:24:16;;;;;;;12.90;2.55;;;26.60;96.10;;;;;;5055055;28;20035;-67
2023/07/30 11:26:43;;;;;;;14.00;3.95;;;26.40;95.90;;;;;;5054429;28;20040;-67
2023/07/30 11:29:19;;;;;;;16.25;2.88;;;26.40;95.90;;;;;;5054936;28;20027;-67
2023/07/30 11:31:46;;;;;;;10.95;2.42;;;26.50;95.60;;;;;;5054800;28;20029;-68
2023/07/30 11:34:14;;;;;;;15.13;2.90;;;26.30;95.90;;;;;;5054127;28;20025;-67
2023/07/30 11:36:41;;;;;;;15.07;3.92;;;26.10;96.40;;;;;;5055016;28;20029;-67
2023/07/30 11:39:09;;;;;;;11.95;2.78;;;26.40;96.40;;;;;;5054307;28;20110;-68
2023/07/30 11:41:36;;;;;;;10.27;2.50;;;26.60;96.20;;;;;;5054691;28;20052;-67
2023/07/30 11:44:02;;;;;;;12.00;3.05;;;27.30;95.60;;;;;;5054817;28;20465;-66
2023/07/30 11:46:29;;;;;;;16.80;3.55;;;27.20;95.80;;;;;;5054268;28;20912;-65
2023/07/30 11:49:11;;;;;;;10.00;2.45;;;27.20;95.70;;;;;;5054523;28;20040;-67
2023/07/30 11:51:37;;;;;;;11.55;2.40;;;27.60;95.50;;;;;;5054632;28;20025;-67
2023/07/30 11:54:03;;;;;;;14.20;3.10;;;27.70;95.00;;;;;;5052677;28;20036;-67
2023/07/30 11:56:33;;;;;;;11.98;2.70;;;27.60;94.70;;;;;;5052801;28;20029;-67
2023/07/30 11:59:00;;;;;;;10.50;1.90;;;27.10;95.10;;;;;;5053003;28;20036;-68
2023/07/30 12:01:28;;;;;;;10.55;2.42;;;26.40;95.20;;;;;;5053327;28;20037;-67
2023/07/30 12:03:58;;;;;;;8.82;1.77;;;25.90;96.00;;;;;;5052987;28;20029;-67
2023/07/30 12:06:24;;;;;;;14.88;2.53;;;26.10;95.80;;;;;;5049715;28;20049;-68
2023/07/30 12:08:50;;;;;;;11.38;2.17;;;25.90;96.00;;;;;;5034340;28;20083;-67
2023/07/30 12:11:21;;;;;;;7.90;2.00;;;25.50;96.60;;;;;;5034498;28;20032;-67
2023/07/30 12:13:47;;;;;;;7.85;1.88;;;25.50;97.00;;;;;;5044149;28;20029;-67
2023/07/30 12:16:14;;;;;;;11.05;2.10;;;26.10;96.10;;;;;;5053905;28;20036;-68
2023/07/30 12:18:40;;;;;;;13.45;2.30;;;26.10;96.30;;;;;;5051740;28;20028;-68
2023/07/30 12:21:11;;;;;;;12.00;2.10;;;26.20;96.50;;;;;;5052526;28;20115;-66
2023/07/30 12:23:37;;;;;;;13.20;2.30;;;26.90;95.80;;;;;;5054257;28;20083;-68
2023/07/30 12:26:05;;;;;;;9.13;1.85;;;27.10;95.50;;;;;;5054030;28;20040;-67
2023/07/30 12:28:34;;;;;;;11.80;2.25;;;27.10;94.90;;;;;;5054108;28;20115;-67
2023/07/30 12:31:00;;;;;;;11.35;2.03;;;26.70;95.30;;;;;;5052431;28;20021;-66
2023/07/30 12:33:26;;;;;;;13.15;2.42;;;26.40;96.00;;;;;;5053594;28;20029;-67
2023/07/30 12:35:53;;;;;;;9.75;2.00;;;26.30;96.10;;;;;;5053722;28;20032;-67